sensor_id;sensor_type;location;lat;lon;timestamp;temperature;humidity
20284;DHT22;10301;50.832;4.080;2023-07-13T00:01:30;16.90;2.00
20284;DHT22;10301;50.832;4.080;2023-07-13T00:03:57;17.10;1.00
20284;DHT22;10301;50.832;4.080;2023-07-13T00:06:23;16.90;2.20
20284;DHT22;10301;50.832;4.080;2023-07-13T00:08:49;16.80;8.00
20284;DHT22;10301;50.832;4.080;2023-07-13T00:11:16;16.80;9.70
20284;DHT22;10301;50.832;4.080;2023-07-13T00:13:43;16.80;11.50
20284;DHT22;10301;50.832;4.080;2023-07-13T00:16:10;16.80;12.50
20284;DHT22;10301;50.832;4.080;2023-07-13T00:18:36;16.90;7.30
20284;DHT22;10301;50.832;4.080;2023-07-13T00:21:03;16.90;5.80
20284;DHT22;10301;50.832;4.080;2023-07-13T00:23:35;16.80;11.00
20284;DHT22;10301;50.832;4.080;2023-07-13T00:26:03;16.70;16.20
20284;DHT22;10301;50.832;4.080;2023-07-13T00:28:29;16.60;21.80
20284;DHT22;10301;50.832;4.080;2023-07-13T00:30:54;16.60;25.20
20284;DHT22;10301;50.832;4.080;2023-07-13T00:33:20;16.80;10.20
20284;DHT22;10301;50.832;4.080;2023-07-13T00:35:46;16.70;18.00
20284;DHT22;10301;50.832;4.080;2023-07-13T00:38:13;16.80;11.90
20284;DHT22;10301;50.832;4.080;2023-07-13T00:40:38;16.70;20.00
20284;DHT22;10301;50.832;4.080;2023-07-13T00:43:16;16.50;25.90
20284;DHT22;10301;50.832;4.080;2023-07-13T00:48:31;16.80;9.30
20284;DHT22;10301;50.832;4.080;2023-07-13T00:50:57;16.60;17.90
20284;DHT22;10301;50.832;4.080;2023-07-13T00:53:27;16.70;16.20
20284;DHT22;10301;50.832;4.080;2023-07-13T00:55:55;16.60;23.10
20284;DHT22;10301;50.832;4.080;2023-07-13T00:58:22;16.60;20.90
20284;DHT22;10301;50.832;4.080;2023-07-13T01:00:49;16.70;21.20
20284;DHT22;10301;50.832;4.080;2023-07-13T01:03:16;16.60;16.30
20284;DHT22;10301;50.832;4.080;2023-07-13T01:05:43;16.40;23.90
20284;DHT22;10301;50.832;4.080;2023-07-13T01:08:09;16.30;35.30
20284;DHT22;10301;50.832;4.080;2023-07-13T01:10:35;16.20;37.20
20284;DHT22;10301;50.832;4.080;2023-07-13T01:13:11;16.20;45.60
20284;DHT22;10301;50.832;4.080;2023-07-13T01:18:05;16.30;35.70
20284;DHT22;10301;50.832;4.080;2023-07-13T01:20:31;16.30;37.50
20284;DHT22;10301;50.832;4.080;2023-07-13T01:23:08;16.20;40.30
20284;DHT22;10301;50.832;4.080;2023-07-13T01:25:35;16.30;44.00
20284;DHT22;10301;50.832;4.080;2023-07-13T01:28:02;16.10;43.70
20284;DHT22;10301;50.832;4.080;2023-07-13T01:30:28;16.10;52.80
20284;DHT22;10301;50.832;4.080;2023-07-13T01:32:54;16.20;44.40
20284;DHT22;10301;50.832;4.080;2023-07-13T01:35:20;16.20;41.00
20284;DHT22;10301;50.832;4.080;2023-07-13T01:37:46;16.30;30.70
20284;DHT22;10301;50.832;4.080;2023-07-13T01:40:12;16.10;43.80
20284;DHT22;10301;50.832;4.080;2023-07-13T01:42:38;16.10;54.10
20284;DHT22;10301;50.832;4.080;2023-07-13T01:45:04;16.20;43.60
20284;DHT22;10301;50.832;4.080;2023-07-13T01:47:30;16.40;28.40
20284;DHT22;10301;50.832;4.080;2023-07-13T01:49:57;16.50;19.30
20284;DHT22;10301;50.832;4.080;2023-07-13T01:52:23;16.40;23.90
20284;DHT22;10301;50.832;4.080;2023-07-13T01:54:49;16.20;30.10
20284;DHT22;10301;50.832;4.080;2023-07-13T01:57:15;16.30;36.20
20284;DHT22;10301;50.832;4.080;2023-07-13T01:59:40;16.40;28.40
20284;DHT22;10301;50.832;4.080;2023-07-13T02:02:06;16.40;25.40
20284;DHT22;10301;50.832;4.080;2023-07-13T02:04:32;16.30;26.60
20284;DHT22;10301;50.832;4.080;2023-07-13T02:06:58;16.10;42.30
20284;DHT22;10301;50.832;4.080;2023-07-13T02:09:23;16.10;42.80
20284;DHT22;10301;50.832;4.080;2023-07-13T02:11:49;16.00;47.70
20284;DHT22;10301;50.832;4.080;2023-07-13T02:14:15;16.00;49.30
20284;DHT22;10301;50.832;4.080;2023-07-13T02:16:41;15.90;57.00
20284;DHT22;10301;50.832;4.080;2023-07-13T02:19:07;15.80;64.80
20284;DHT22;10301;50.832;4.080;2023-07-13T02:21:33;15.80;73.30
20284;DHT22;10301;50.832;4.080;2023-07-13T02:23:59;15.70;78.60
20284;DHT22;10301;50.832;4.080;2023-07-13T02:26:25;15.70;73.70
20284;DHT22;10301;50.832;4.080;2023-07-13T02:28:51;15.80;71.30
20284;DHT22;10301;50.832;4.080;2023-07-13T02:31:17;15.70;77.30
20284;DHT22;10301;50.832;4.080;2023-07-13T02:33:42;15.60;82.10
20284;DHT22;10301;50.832;4.080;2023-07-13T02:36:09;15.80;71.90
20284;DHT22;10301;50.832;4.080;2023-07-13T02:38:35;15.90;60.70
20284;DHT22;10301;50.832;4.080;2023-07-13T02:41:05;15.60;78.50
20284;DHT22;10301;50.832;4.080;2023-07-13T02:43:32;15.70;75.90
20284;DHT22;10301;50.832;4.080;2023-07-13T02:45:59;15.80;73.10
20284;DHT22;10301;50.832;4.080;2023-07-13T02:48:29;15.90;60.40
20284;DHT22;10301;50.832;4.080;2023-07-13T02:50:55;15.80;72.20
20284;DHT22;10301;50.832;4.080;2023-07-13T02:53:21;15.70;72.50
20284;DHT22;10301;50.832;4.080;2023-07-13T02:55:46;15.50;81.40
20284;DHT22;10301;50.832;4.080;2023-07-13T02:58:13;15.30;93.90
20284;DHT22;10301;50.832;4.080;2023-07-13T03:00:43;15.40;94.80
20284;DHT22;10301;50.832;4.080;2023-07-13T03:03:09;15.50;92.20
20284;DHT22;10301;50.832;4.080;2023-07-13T03:05:37;15.50;89.70
20284;DHT22;10301;50.832;4.080;2023-07-13T03:08:03;15.50;90.50
20284;DHT22;10301;50.832;4.080;2023-07-13T03:10:29;15.50;87.60
20284;DHT22;10301;50.832;4.080;2023-07-13T03:12:55;15.30;94.00
20284;DHT22;10301;50.832;4.080;2023-07-13T03:15:20;15.20;97.40
20284;DHT22;10301;50.832;4.080;2023-07-13T03:17:46;15.20;98.30
20284;DHT22;10301;50.832;4.080;2023-07-13T03:20:12;15.20;98.00
20284;DHT22;10301;50.832;4.080;2023-07-13T03:22:38;15.20;97.10
20284;DHT22;10301;50.832;4.080;2023-07-13T03:25:04;15.20;97.10
20284;DHT22;10301;50.832;4.080;2023-07-13T03:27:30;15.30;97.00
20284;DHT22;10301;50.832;4.080;2023-07-13T03:29:55;15.40;92.60
20284;DHT22;10301;50.832;4.080;2023-07-13T03:32:21;15.20;96.80
20284;DHT22;10301;50.832;4.080;2023-07-13T03:34:47;15.10;99.50
20284;DHT22;10301;50.832;4.080;2023-07-13T03:37:12;15.20;98.80
20284;DHT22;10301;50.832;4.080;2023-07-13T03:39:38;15.30;94.00
20284;DHT22;10301;50.832;4.080;2023-07-13T03:42:04;15.40;93.50
20284;DHT22;10301;50.832;4.080;2023-07-13T03:44:30;15.20;94.70
20284;DHT22;10301;50.832;4.080;2023-07-13T03:46:55;15.10;99.60
20284;DHT22;10301;50.832;4.080;2023-07-13T03:49:21;15.20;98.60
20284;DHT22;10301;50.832;4.080;2023-07-13T03:51:47;15.30;97.80
20284;DHT22;10301;50.832;4.080;2023-07-13T03:54:12;15.50;93.50
20284;DHT22;10301;50.832;4.080;2023-07-13T03:56:38;15.50;90.80
20284;DHT22;10301;50.832;4.080;2023-07-13T03:59:03;15.70;92.20
20284;DHT22;10301;50.832;4.080;2023-07-13T04:01:29;15.80;86.50
20284;DHT22;10301;50.832;4.080;2023-07-13T04:03:55;15.70;91.50
20284;DHT22;10301;50.832;4.080;2023-07-13T04:06:23;15.80;88.40
20284;DHT22;10301;50.832;4.080;2023-07-13T04:08:52;15.60;92.60
20284;DHT22;10301;50.832;4.080;2023-07-13T04:11:20;15.60;96.60
20284;DHT22;10301;50.832;4.080;2023-07-13T04:13:47;15.70;95.30
20284;DHT22;10301;50.832;4.080;2023-07-13T04:16:15;16.00;86.90
20284;DHT22;10301;50.832;4.080;2023-07-13T04:18:41;16.00;81.60
20284;DHT22;10301;50.832;4.080;2023-07-13T04:21:07;16.00;79.30
20284;DHT22;10301;50.832;4.080;2023-07-13T04:23:33;16.00;82.40
20284;DHT22;10301;50.832;4.080;2023-07-13T04:25:59;16.00;81.90
20284;DHT22;10301;50.832;4.080;2023-07-13T04:28:25;16.00;80.50
20284;DHT22;10301;50.832;4.080;2023-07-13T04:30:51;16.10;83.10
20284;DHT22;10301;50.832;4.080;2023-07-13T04:33:17;16.10;74.10
20284;DHT22;10301;50.832;4.080;2023-07-13T04:35:43;15.80;94.30
20284;DHT22;10301;50.832;4.080;2023-07-13T04:38:09;15.70;96.50
20284;DHT22;10301;50.832;4.080;2023-07-13T04:40:37;15.80;94.70
20284;DHT22;10301;50.832;4.080;2023-07-13T04:43:03;16.10;91.50
20284;DHT22;10301;50.832;4.080;2023-07-13T04:45:28;16.30;73.30
20284;DHT22;10301;50.832;4.080;2023-07-13T04:47:54;16.10;89.30
20284;DHT22;10301;50.832;4.080;2023-07-13T04:50:20;16.30;87.30
20284;DHT22;10301;50.832;4.080;2023-07-13T04:52:50;16.10;85.20
20284;DHT22;10301;50.832;4.080;2023-07-13T04:55:16;16.20;91.80
20284;DHT22;10301;50.832;4.080;2023-07-13T04:57:41;16.40;80.10
20284;DHT22;10301;50.832;4.080;2023-07-13T05:00:07;16.50;73.80
20284;DHT22;10301;50.832;4.080;2023-07-13T05:02:34;16.60;62.70
20284;DHT22;10301;50.832;4.080;2023-07-13T05:05:01;16.70;56.40
20284;DHT22;10301;50.832;4.080;2023-07-13T05:07:26;16.70;55.00
20284;DHT22;10301;50.832;4.080;2023-07-13T05:09:52;16.80;50.90
20284;DHT22;10301;50.832;4.080;2023-07-13T05:12:18;16.40;68.80
20284;DHT22;10301;50.832;4.080;2023-07-13T05:14:44;16.40;84.20
20284;DHT22;10301;50.832;4.080;2023-07-13T05:17:10;16.50;75.50
20284;DHT22;10301;50.832;4.080;2023-07-13T05:19:36;16.70;62.60
20284;DHT22;10301;50.832;4.080;2023-07-13T05:22:01;16.80;57.60
20284;DHT22;10301;50.832;4.080;2023-07-13T05:24:28;16.90;50.90
20284;DHT22;10301;50.832;4.080;2023-07-13T05:26:54;17.10;40.50
20284;DHT22;10301;50.832;4.080;2023-07-13T05:29:20;16.80;49.90
20284;DHT22;10301;50.832;4.080;2023-07-13T05:31:46;16.70;68.40
20284;DHT22;10301;50.832;4.080;2023-07-13T05:34:12;16.50;80.50
20284;DHT22;10301;50.832;4.080;2023-07-13T05:36:37;16.70;71.90
20284;DHT22;10301;50.832;4.080;2023-07-13T05:39:03;16.80;65.40
20284;DHT22;10301;50.832;4.080;2023-07-13T05:41:29;17.00;57.50
20284;DHT22;10301;50.832;4.080;2023-07-13T05:43:55;16.90;63.60
20284;DHT22;10301;50.832;4.080;2023-07-13T05:46:21;16.90;61.50
20284;DHT22;10301;50.832;4.080;2023-07-13T05:48:47;16.90;66.10
20284;DHT22;10301;50.832;4.080;2023-07-13T05:51:13;16.90;63.70
20284;DHT22;10301;50.832;4.080;2023-07-13T05:53:39;17.20;49.80
20284;DHT22;10301;50.832;4.080;2023-07-13T05:56:04;17.30;43.90
20284;DHT22;10301;50.832;4.080;2023-07-13T05:58:30;17.50;39.10
20284;DHT22;10301;50.832;4.080;2023-07-13T06:01:08;17.60;29.80
20284;DHT22;10301;50.832;4.080;2023-07-13T06:03:34;17.60;29.40
20284;DHT22;10301;50.832;4.080;2023-07-13T06:06:00;17.80;18.20
20284;DHT22;10301;50.832;4.080;2023-07-13T06:08:27;17.50;35.10
20284;DHT22;10301;50.832;4.080;2023-07-13T06:10:53;17.70;26.60
20284;DHT22;10301;50.832;4.080;2023-07-13T06:13:18;17.80;21.00
20284;DHT22;10301;50.832;4.080;2023-07-13T06:15:51;18.00;20.90
20284;DHT22;10301;50.832;4.080;2023-07-13T06:18:16;18.30;2.20
20284;DHT22;10301;50.832;4.080;2023-07-13T06:20:42;18.40;1.00
20284;DHT22;10301;50.832;4.080;2023-07-13T06:23:08;18.20;1.00
20284;DHT22;10301;50.832;4.080;2023-07-13T06:25:33;18.10;2.90
20284;DHT22;10301;50.832;4.080;2023-07-13T06:27:59;18.10;9.10
20284;DHT22;10301;50.832;4.080;2023-07-13T06:30:26;18.40;1.00
20284;DHT22;10301;50.832;4.080;2023-07-13T06:32:52;18.50;1.00
20284;DHT22;10301;50.832;4.080;2023-07-13T06:35:18;18.40;1.00
20284;DHT22;10301;50.832;4.080;2023-07-13T06:37:44;18.40;1.00
20284;DHT22;10301;50.832;4.080;2023-07-13T06:40:10;18.70;1.00
20284;DHT22;10301;50.832;4.080;2023-07-13T06:42:35;18.70;1.00
20284;DHT22;10301;50.832;4.080;2023-07-13T06:45:02;18.50;1.00
20284;DHT22;10301;50.832;4.080;2023-07-13T06:47:27;18.60;1.00
20284;DHT22;10301;50.832;4.080;2023-07-13T06:49:53;18.80;1.00
20284;DHT22;10301;50.832;4.080;2023-07-13T06:52:18;18.90;1.00
20284;DHT22;10301;50.832;4.080;2023-07-13T06:54:44;19.10;1.00
20284;DHT22;10301;50.832;4.080;2023-07-13T06:57:10;19.10;1.00
20284;DHT22;10301;50.832;4.080;2023-07-13T06:59:35;19.20;1.00
20284;DHT22;10301;50.832;4.080;2023-07-13T07:02:01;19.30;1.00
20284;DHT22;10301;50.832;4.080;2023-07-13T07:04:27;19.00;1.00
20284;DHT22;10301;50.832;4.080;2023-07-13T07:06:54;19.30;1.00
20284;DHT22;10301;50.832;4.080;2023-07-13T07:09:19;19.50;1.00
20284;DHT22;10301;50.832;4.080;2023-07-13T07:11:45;19.70;1.00
20284;DHT22;10301;50.832;4.080;2023-07-13T07:14:11;19.50;1.00
20284;DHT22;10301;50.832;4.080;2023-07-13T07:16:36;19.70;1.00
20284;DHT22;10301;50.832;4.080;2023-07-13T07:19:02;20.00;1.00
20284;DHT22;10301;50.832;4.080;2023-07-13T07:21:28;19.70;1.00
20284;DHT22;10301;50.832;4.080;2023-07-13T07:23:53;19.60;1.00
20284;DHT22;10301;50.832;4.080;2023-07-13T07:26:19;19.80;1.00
20284;DHT22;10301;50.832;4.080;2023-07-13T07:28:45;19.80;1.00
20284;DHT22;10301;50.832;4.080;2023-07-13T07:31:11;20.00;1.00
20284;DHT22;10301;50.832;4.080;2023-07-13T07:33:36;20.20;1.00
20284;DHT22;10301;50.832;4.080;2023-07-13T07:36:02;20.50;1.00
20284;DHT22;10301;50.832;4.080;2023-07-13T07:38:29;20.40;1.00
20284;DHT22;10301;50.832;4.080;2023-07-13T07:40:54;20.10;1.00
20284;DHT22;10301;50.832;4.080;2023-07-13T07:43:20;20.10;1.00
20284;DHT22;10301;50.832;4.080;2023-07-13T07:45:46;20.00;1.00
20284;DHT22;10301;50.832;4.080;2023-07-13T07:48:11;19.90;1.00
20284;DHT22;10301;50.832;4.080;2023-07-13T07:50:38;20.10;1.00
20284;DHT22;10301;50.832;4.080;2023-07-13T07:53:05;20.20;1.00
20284;DHT22;10301;50.832;4.080;2023-07-13T07:55:34;20.20;1.00
20284;DHT22;10301;50.832;4.080;2023-07-13T07:58:02;20.70;1.00
20284;DHT22;10301;50.832;4.080;2023-07-13T08:00:28;21.20;1.00
20284;DHT22;10301;50.832;4.080;2023-07-13T08:02:57;20.90;1.00
20284;DHT22;10301;50.832;4.080;2023-07-13T08:05:23;20.90;1.00
20284;DHT22;10301;50.832;4.080;2023-07-13T08:07:49;20.90;1.00
20284;DHT22;10301;50.832;4.080;2023-07-13T08:10:15;20.90;1.00
20284;DHT22;10301;50.832;4.080;2023-07-13T08:12:41;20.90;1.00
20284;DHT22;10301;50.832;4.080;2023-07-13T08:15:11;21.30;1.00
20284;DHT22;10301;50.832;4.080;2023-07-13T08:17:37;21.20;1.00
20284;DHT22;10301;50.832;4.080;2023-07-13T08:20:03;21.00;1.00
20284;DHT22;10301;50.832;4.080;2023-07-13T08:22:29;21.20;1.00
20284;DHT22;10301;50.832;4.080;2023-07-13T08:24:55;21.20;1.00
20284;DHT22;10301;50.832;4.080;2023-07-13T08:27:25;21.10;1.00
20284;DHT22;10301;50.832;4.080;2023-07-13T08:29:52;21.00;1.00
20284;DHT22;10301;50.832;4.080;2023-07-13T08:32:19;21.00;1.00
20284;DHT22;10301;50.832;4.080;2023-07-13T08:34:45;21.30;1.00
20284;DHT22;10301;50.832;4.080;2023-07-13T08:37:10;21.40;1.00
20284;DHT22;10301;50.832;4.080;2023-07-13T08:39:36;21.60;1.00
20284;DHT22;10301;50.832;4.080;2023-07-13T08:42:06;21.70;1.00
20284;DHT22;10301;50.832;4.080;2023-07-13T08:47:35;21.40;1.00
20284;DHT22;10301;50.832;4.080;2023-07-13T08:50:03;21.80;1.00
20284;DHT22;10301;50.832;4.080;2023-07-13T08:52:36;21.90;99.90
20284;DHT22;10301;50.832;4.080;2023-07-13T08:55:20;22.10;99.90
20284;DHT22;10301;50.832;4.080;2023-07-13T08:57:53;22.10;99.90
20284;DHT22;10301;50.832;4.080;2023-07-13T09:00:20;22.20;99.90
20284;DHT22;10301;50.832;4.080;2023-07-13T09:02:57;22.30;99.90
20284;DHT22;10301;50.832;4.080;2023-07-13T09:05:30;22.20;99.90
20284;DHT22;10301;50.832;4.080;2023-07-13T09:10:53;22.20;99.90
20284;DHT22;10301;50.832;4.080;2023-07-13T09:13:47;22.70;36.80
20284;DHT22;10301;50.832;4.080;2023-07-13T09:16:17;22.80;1.00
20284;DHT22;10301;50.832;4.080;2023-07-13T09:18:52;22.90;14.90
20284;DHT22;10301;50.832;4.080;2023-07-13T09:21:32;22.70;26.00
20284;DHT22;10301;50.832;4.080;2023-07-13T09:26:43;23.00;1.00
20284;DHT22;10301;50.832;4.080;2023-07-13T09:29:20;22.80;1.00
20284;DHT22;10301;50.832;4.080;2023-07-13T09:31:50;23.00;1.00
20284;DHT22;10301;50.832;4.080;2023-07-13T09:34:18;23.20;99.90
20284;DHT22;10301;50.832;4.080;2023-07-13T09:36:44;23.60;1.00
20284;DHT22;10301;50.832;4.080;2023-07-13T09:39:29;23.90;99.90
20284;DHT22;10301;50.832;4.080;2023-07-13T09:42:12;24.10;1.00
20284;DHT22;10301;50.832;4.080;2023-07-13T09:45:01;23.80;1.00
20284;DHT22;10301;50.832;4.080;2023-07-13T09:47:37;23.30;3.90
20284;DHT22;10301;50.832;4.080;2023-07-13T09:50:07;22.90;99.90
20284;DHT22;10301;50.832;4.080;2023-07-13T09:52:50;23.20;1.00
20284;DHT22;10301;50.832;4.080;2023-07-13T09:55:37;23.30;1.00
20284;DHT22;10301;50.832;4.080;2023-07-13T09:58:32;23.80;99.90
20284;DHT22;10301;50.832;4.080;2023-07-13T10:01:02;23.70;1.00
20284;DHT22;10301;50.832;4.080;2023-07-13T10:03:33;23.60;99.90
20284;DHT22;10301;50.832;4.080;2023-07-13T10:08:38;23.40;1.00
20284;DHT22;10301;50.832;4.080;2023-07-13T10:11:19;23.50;1.00
20284;DHT22;10301;50.832;4.080;2023-07-13T10:14:22;23.40;99.90
20284;DHT22;10301;50.832;4.080;2023-07-13T10:16:59;23.50;95.90
20284;DHT22;10301;50.832;4.080;2023-07-13T10:19:31;22.60;1.00
20284;DHT22;10301;50.832;4.080;2023-07-13T10:22:11;22.50;1.00
20284;DHT22;10301;50.832;4.080;2023-07-13T10:24:39;22.40;1.00
20284;DHT22;10301;50.832;4.080;2023-07-13T10:27:23;22.90;1.00
20284;DHT22;10301;50.832;4.080;2023-07-13T10:32:38;23.20;1.00
20284;DHT22;10301;50.832;4.080;2023-07-13T10:35:05;22.90;1.00
20284;DHT22;10301;50.832;4.080;2023-07-13T10:37:47;23.10;99.90
20284;DHT22;10301;50.832;4.080;2023-07-13T10:40:19;23.00;1.00
20284;DHT22;10301;50.832;4.080;2023-07-13T10:42:48;23.20;99.90
20284;DHT22;10301;50.832;4.080;2023-07-13T10:45:18;23.00;1.00
20284;DHT22;10301;50.832;4.080;2023-07-13T10:47:45;23.00;1.00
20284;DHT22;10301;50.832;4.080;2023-07-13T10:50:20;23.00;1.00
20284;DHT22;10301;50.832;4.080;2023-07-13T10:52:49;23.00;99.90
20284;DHT22;10301;50.832;4.080;2023-07-13T10:55:59;23.40;99.90
20284;DHT22;10301;50.832;4.080;2023-07-13T10:58:33;23.80;1.00
20284;DHT22;10301;50.832;4.080;2023-07-13T11:01:09;23.90;1.00
20284;DHT22;10301;50.832;4.080;2023-07-13T11:03:54;24.40;1.00
20284;DHT22;10301;50.832;4.080;2023-07-13T11:11:44;23.40;99.90
20284;DHT22;10301;50.832;4.080;2023-07-13T11:16:52;22.60;1.00
20284;DHT22;10301;50.832;4.080;2023-07-13T11:24:33;22.00;1.00
20284;DHT22;10301;50.832;4.080;2023-07-13T11:27:41;21.80;1.00
20284;DHT22;10301;50.832;4.080;2023-07-13T11:36:03;21.90;1.00
20284;DHT22;10301;50.832;4.080;2023-07-13T11:38:35;22.40;48.40
20284;DHT22;10301;50.832;4.080;2023-07-13T11:44:18;22.80;99.90
20284;DHT22;10301;50.832;4.080;2023-07-13T11:47:08;23.30;1.00
20284;DHT22;10301;50.832;4.080;2023-07-13T11:49:44;23.90;99.90
20284;DHT22;10301;50.832;4.080;2023-07-13T11:52:19;24.10;1.00
20284;DHT22;10301;50.832;4.080;2023-07-13T11:54:53;24.10;99.90
20284;DHT22;10301;50.832;4.080;2023-07-13T11:57:28;23.30;1.00
20284;DHT22;10301;50.832;4.080;2023-07-13T11:59:55;22.00;99.90
20284;DHT22;10301;50.832;4.080;2023-07-13T12:02:42;20.80;1.00
20284;DHT22;10301;50.832;4.080;2023-07-13T12:05:17;20.30;1.00
20284;DHT22;10301;50.832;4.080;2023-07-13T12:07:44;19.70;11.30
20284;DHT22;10301;50.832;4.080;2023-07-13T12:13:02;19.70;19.40
20284;DHT22;10301;50.832;4.080;2023-07-13T12:15:45;20.00;1.00
20284;DHT22;10301;50.832;4.080;2023-07-13T12:18:23;20.10;1.00
20284;DHT22;10301;50.832;4.080;2023-07-13T12:20:58;20.20;1.00
20284;DHT22;10301;50.832;4.080;2023-07-13T12:23:30;20.20;1.00
20284;DHT22;10301;50.832;4.080;2023-07-13T12:25:57;20.00;10.50
20284;DHT22;10301;50.832;4.080;2023-07-13T12:28:35;20.00;1.00
20284;DHT22;10301;50.832;4.080;2023-07-13T12:31:04;20.10;5.20
20284;DHT22;10301;50.832;4.080;2023-07-13T12:33:31;20.30;9.60
20284;DHT22;10301;50.832;4.080;2023-07-13T12:36:01;20.70;1.00
20284;DHT22;10301;50.832;4.080;2023-07-13T12:38:28;20.70;1.00
20284;DHT22;10301;50.832;4.080;2023-07-13T12:40:55;21.00;1.00
20284;DHT22;10301;50.832;4.080;2023-07-13T12:43:22;21.20;1.00
20284;DHT22;10301;50.832;4.080;2023-07-13T12:46:00;21.30;1.00
20284;DHT22;10301;50.832;4.080;2023-07-13T12:48:27;21.70;1.00
20284;DHT22;10301;50.832;4.080;2023-07-13T12:50:55;21.90;1.00
20284;DHT22;10301;50.832;4.080;2023-07-13T12:53:23;22.00;1.00
20284;DHT22;10301;50.832;4.080;2023-07-13T12:55:55;22.00;1.00
20284;DHT22;10301;50.832;4.080;2023-07-13T13:00:51;22.00;1.00
20284;DHT22;10301;50.832;4.080;2023-07-13T13:03:31;22.40;1.00
20284;DHT22;10301;50.832;4.080;2023-07-13T13:06:06;22.90;1.00
20284;DHT22;10301;50.832;4.080;2023-07-13T13:08:34;23.60;1.00
20284;DHT22;10301;50.832;4.080;2023-07-13T13:11:01;24.00;1.00
20284;DHT22;10301;50.832;4.080;2023-07-13T13:13:27;24.00;1.00
20284;DHT22;10301;50.832;4.080;2023-07-13T13:15:53;24.20;1.00
20284;DHT22;10301;50.832;4.080;2023-07-13T13:18:21;24.20;99.90
20284;DHT22;10301;50.832;4.080;2023-07-13T13:20:48;24.30;99.90
20284;DHT22;10301;50.832;4.080;2023-07-13T13:23:17;24.40;99.90
20284;DHT22;10301;50.832;4.080;2023-07-13T13:25:49;24.70;1.00
20284;DHT22;10301;50.832;4.080;2023-07-13T13:28:17;24.50;1.00
20284;DHT22;10301;50.832;4.080;2023-07-13T13:30:44;24.10;1.00
20284;DHT22;10301;50.832;4.080;2023-07-13T13:33:13;23.80;1.00
20284;DHT22;10301;50.832;4.080;2023-07-13T13:35:40;24.00;99.90
20284;DHT22;10301;50.832;4.080;2023-07-13T13:40:37;24.10;99.90
20284;DHT22;10301;50.832;4.080;2023-07-13T13:43:10;24.10;99.90
20284;DHT22;10301;50.832;4.080;2023-07-13T13:45:39;23.90;1.00
20284;DHT22;10301;50.832;4.080;2023-07-13T13:48:05;24.10;99.90
20284;DHT22;10301;50.832;4.080;2023-07-13T13:50:31;24.20;1.00
20284;DHT22;10301;50.832;4.080;2023-07-13T13:52:56;24.20;1.00
20284;DHT22;10301;50.832;4.080;2023-07-13T13:55:22;24.10;2.20
20284;DHT22;10301;50.832;4.080;2023-07-13T13:57:49;23.80;1.00
20284;DHT22;10301;50.832;4.080;2023-07-13T14:00:17;23.70;99.90
20284;DHT22;10301;50.832;4.080;2023-07-13T14:02:47;23.70;99.90
20284;DHT22;10301;50.832;4.080;2023-07-13T14:05:15;23.70;1.00
20284;DHT22;10301;50.832;4.080;2023-07-13T14:07:43;23.30;99.90
20284;DHT22;10301;50.832;4.080;2023-07-13T14:10:15;23.60;1.00
20284;DHT22;10301;50.832;4.080;2023-07-13T14:12:52;23.50;99.90
20284;DHT22;10301;50.832;4.080;2023-07-13T14:15:23;23.60;99.90
20284;DHT22;10301;50.832;4.080;2023-07-13T14:17:49;23.90;99.90
20284;DHT22;10301;50.832;4.080;2023-07-13T14:20:18;23.90;99.90
20284;DHT22;10301;50.832;4.080;2023-07-13T14:22:45;24.10;1.00
20284;DHT22;10301;50.832;4.080;2023-07-13T14:25:12;24.70;1.00
20284;DHT22;10301;50.832;4.080;2023-07-13T14:27:39;24.70;99.90
20284;DHT22;10301;50.832;4.080;2023-07-13T14:30:17;24.70;99.90
20284;DHT22;10301;50.832;4.080;2023-07-13T14:32:43;25.00;1.00
20284;DHT22;10301;50.832;4.080;2023-07-13T14:35:14;25.00;99.90
20284;DHT22;10301;50.832;4.080;2023-07-13T14:37:41;25.20;99.90
20284;DHT22;10301;50.832;4.080;2023-07-13T14:40:29;25.30;1.00
20284;DHT22;10301;50.832;4.080;2023-07-13T14:42:55;24.80;1.00
20284;DHT22;10301;50.832;4.080;2023-07-13T14:45:21;24.80;1.00
20284;DHT22;10301;50.832;4.080;2023-07-13T14:47:47;24.50;42.40
20284;DHT22;10301;50.832;4.080;2023-07-13T14:50:24;24.80;1.00
20284;DHT22;10301;50.832;4.080;2023-07-13T14:52:52;24.80;99.90
20284;DHT22;10301;50.832;4.080;2023-07-13T14:55:18;25.00;1.00
20284;DHT22;10301;50.832;4.080;2023-07-13T14:57:44;25.20;99.90
20284;DHT22;10301;50.832;4.080;2023-07-13T15:00:15;25.30;1.00
20284;DHT22;10301;50.832;4.080;2023-07-13T15:02:41;25.40;1.00
20284;DHT22;10301;50.832;4.080;2023-07-13T15:05:15;25.60;99.90
20284;DHT22;10301;50.832;4.080;2023-07-13T15:07:41;25.70;1.00
20284;DHT22;10301;50.832;4.080;2023-07-13T15:10:21;25.60;1.00
20284;DHT22;10301;50.832;4.080;2023-07-13T15:12:47;25.50;1.00
20284;DHT22;10301;50.832;4.080;2023-07-13T15:15:13;25.60;1.00
20284;DHT22;10301;50.832;4.080;2023-07-13T15:17:41;25.70;1.00
20284;DHT22;10301;50.832;4.080;2023-07-13T15:20:23;25.70;1.00
20284;DHT22;10301;50.832;4.080;2023-07-13T15:22:50;25.80;1.00
20284;DHT22;10301;50.832;4.080;2023-07-13T15:25:21;26.10;1.00
20284;DHT22;10301;50.832;4.080;2023-07-13T15:27:47;26.10;1.00
20284;DHT22;10301;50.832;4.080;2023-07-13T15:30:13;26.10;1.00
20284;DHT22;10301;50.832;4.080;2023-07-13T15:32:44;26.10;1.00
20284;DHT22;10301;50.832;4.080;2023-07-13T15:35:21;25.80;1.00
20284;DHT22;10301;50.832;4.080;2023-07-13T15:37:48;25.90;1.00
20284;DHT22;10301;50.832;4.080;2023-07-13T15:40:16;26.20;1.00
20284;DHT22;10301;50.832;4.080;2023-07-13T15:42:43;26.00;1.00
20284;DHT22;10301;50.832;4.080;2023-07-13T15:45:23;25.80;1.00
20284;DHT22;10301;50.832;4.080;2023-07-13T15:47:52;25.90;1.00
20284;DHT22;10301;50.832;4.080;2023-07-13T15:50:20;26.00;1.00
20284;DHT22;10301;50.832;4.080;2023-07-13T15:52:52;25.90;99.90
20284;DHT22;10301;50.832;4.080;2023-07-13T15:55:19;26.00;99.90
20284;DHT22;10301;50.832;4.080;2023-07-13T15:57:50;26.10;99.90
20284;DHT22;10301;50.832;4.080;2023-07-13T16:00:23;26.20;99.90
20284;DHT22;10301;50.832;4.080;2023-07-13T16:02:49;26.30;99.90
20284;DHT22;10301;50.832;4.080;2023-07-13T16:05:16;26.40;99.90
20284;DHT22;10301;50.832;4.080;2023-07-13T16:07:46;26.10;99.90
20284;DHT22;10301;50.832;4.080;2023-07-13T16:10:24;26.00;99.90
20284;DHT22;10301;50.832;4.080;2023-07-13T16:12:52;26.20;99.90
20284;DHT22;10301;50.832;4.080;2023-07-13T16:15:19;26.10;99.90
20284;DHT22;10301;50.832;4.080;2023-07-13T16:17:46;26.10;99.90
20284;DHT22;10301;50.832;4.080;2023-07-13T16:20:13;26.20;99.90
20284;DHT22;10301;50.832;4.080;2023-07-13T16:22:40;26.00;99.90
20284;DHT22;10301;50.832;4.080;2023-07-13T16:25:23;26.10;99.90
20284;DHT22;10301;50.832;4.080;2023-07-13T16:27:50;26.60;99.90
20284;DHT22;10301;50.832;4.080;2023-07-13T16:30:21;28.10;71.90
20284;DHT22;10301;50.832;4.080;2023-07-13T16:32:48;29.80;1.00
20284;DHT22;10301;50.832;4.080;2023-07-13T16:35:20;29.30;1.00
20284;DHT22;10301;50.832;4.080;2023-07-13T16:37:46;29.20;1.00